Time;durP1;ratioP1;P1;durP2;ratioP2;P2;SDS_P1;SDS_P2;PMS_P1;PMS_P2;Temp;Humidity;BMP_temperature;BMP_pressure;BME280_temperature;BME280_humidity;BME280_pressure;Samples;Min_cycle;Max_cycle;Signal;HPM_P1;HPM_P2
2023/05/03 00:01:40;;;;;;;4.95;1.73;;;;;;;;;;5053710;28;20370;-77
2023/05/03 00:04:05;;;;;;;3.97;1.55;;;;;;;;;;5019802;28;20032;-77
2023/05/03 00:06:30;;;;;;;2.53;1.40;;;;;;;;;;5019254;28;20054;-77
2023/05/03 00:08:56;;;;;;;2.17;1.60;;;;;;;;;;5035968;28;20108;-77
2023/05/03 00:11:21;;;;;;;1.35;1.23;;;;;;;;;;5019504;28;20508;-77
2023/05/03 00:13:47;;;;;;;2.70;1.30;;;;;;;;;;5036066;28;20107;-76
2023/05/03 00:16:13;;;;;;;3.75;2.15;;;;;;;;;;5035717;28;20029;-78
2023/05/03 00:18:38;;;;;;;2.55;1.63;;;;;;;;;;5035555;28;20025;-77
2023/05/03 00:21:04;;;;;;;1.73;1.20;;;;;;;;;;5002811;28;20079;-77
2023/05/03 00:23:29;;;;;;;1.45;1.15;;;;;;;;;;5035766;28;20115;-76
2023/05/03 00:25:55;;;;;;;2.42;1.50;;;;;;;;;;5035560;28;20043;-77
2023/05/03 00:28:21;;;;;;;2.15;1.40;;;;;;;;;;5035438;28;20036;-77
2023/05/03 00:30:47;;;;;;;1.42;1.33;;;;;;;;;;5035414;28;20489;-77
2023/05/03 00:33:13;;;;;;;3.15;1.75;;;;;;;;;;5035759;28;20108;-76
2023/05/03 00:35:39;;;;;;;3.42;1.67;;;;;;;;;;5002728;28;20025;-78
2023/05/03 00:38:04;;;;;;;5.07;1.70;;;;;;;;;;5053455;28;20409;-77
2023/05/03 00:40:30;;;;;;;2.40;1.67;;;;;;;;;;5022873;28;20028;-77
2023/05/03 00:42:56;;;;;;;3.15;1.38;;;;;;;;;;5023221;28;20120;-77
2023/05/03 00:45:22;;;;;;;1.17;1.08;;;;;;;;;;5023091;28;20036;-76
2023/05/03 00:47:47;;;;;;;4.72;1.48;;;;;;;;;;5039374;28;20449;-76
2023/05/03 00:50:13;;;;;;;3.22;1.40;;;;;;;;;;5039078;28;20051;-76
2023/05/03 00:52:38;;;;;;;2.95;1.25;;;;;;;;;;5039488;28;20040;-76
2023/05/03 00:55:04;;;;;;;2.03;1.63;;;;;;;;;;5023003;28;20028;-77
2023/05/03 00:57:30;;;;;;;2.47;1.50;;;;;;;;;;5022833;28;20036;-77
2023/05/03 00:59:58;;;;;;;1.55;1.33;;;;;;;;;;5033427;28;20029;-77
2023/05/03 01:02:24;;;;;;;2.47;1.58;;;;;;;;;;5022456;28;20036;-78
2023/05/03 01:04:50;;;;;;;1.73;1.17;;;;;;;;;;5038587;28;20128;-77
2023/05/03 01:07:31;;;;;;;2.45;1.52;;;;;;;;;;5022663;28;20033;-78
2023/05/03 01:10:02;;;;;;;2.03;1.42;;;;;;;;;;5056601;28;20465;-77
2023/05/03 01:12:52;;;;;;;2.22;1.38;;;;;;;;;;5038872;28;20035;-77
2023/05/03 01:15:55;;;;;;;1.83;1.33;;;;;;;;;;5006962;28;20059;-76
2023/05/03 01:18:25;;;;;;;1.48;1.30;;;;;;;;;;5056468;28;20040;-77
2023/05/03 01:20:50;;;;;;;3.13;1.40;;;;;;;;;;5005940;28;20091;-77
2023/05/03 01:23:29;;;;;;;1.90;1.70;;;;;;;;;;5006073;28;20024;-78
2023/05/03 01:25:54;;;;;;;1.35;1.23;;;;;;;;;;5038849;28;20366;-77
2023/05/03 01:28:20;;;;;;;3.92;1.70;;;;;;;;;;5038433;28;20021;-76
2023/05/03 01:30:45;;;;;;;2.63;1.50;;;;;;;;;;5022191;28;20044;-76
2023/05/03 01:33:24;;;;;;;2.35;1.42;;;;;;;;;;5021791;28;20036;-77
2023/05/03 01:35:53;;;;;;;4.25;1.42;;;;;;;;;;5038390;28;20056;-77
2023/05/03 01:38:18;;;;;;;1.30;1.20;;;;;;;;;;5005928;28;20115;-78
2023/05/03 01:40:46;;;;;;;5.22;1.52;;;;;;;;;;5021900;28;20510;-78
2023/05/03 01:43:12;;;;;;;2.10;1.38;;;;;;;;;;5005803;28;20110;-78
2023/05/03 01:45:38;;;;;;;2.85;1.70;;;;;;;;;;5021802;28;20493;-78
2023/05/03 01:48:09;;;;;;;1.48;1.25;;;;;;;;;;5021676;28;20033;-79
2023/05/03 01:50:35;;;;;;;1.98;1.40;;;;;;;;;;5005522;28;20040;-77
2023/05/03 01:53:00;;;;;;;1.67;1.48;;;;;;;;;;5038201;28;20021;-76
2023/05/03 01:55:26;;;;;;;3.83;1.73;;;;;;;;;;5021922;28;20127;-76
2023/05/03 01:57:51;;;;;;;1.67;1.38;;;;;;;;;;5055811;28;20022;-76
2023/05/03 02:00:17;;;;;;;1.95;1.50;;;;;;;;;;5036881;28;20064;-76
2023/05/03 02:02:42;;;;;;;5.57;1.48;;;;;;;;;;5055082;28;20017;-76
2023/05/03 02:05:08;;;;;;;6.30;1.73;;;;;;;;;;5037928;28;20095;-76
2023/05/03 02:07:34;;;;;;;1.63;1.50;;;;;;;;;;5021426;28;20031;-75
2023/05/03 02:09:59;;;;;;;2.70;1.55;;;;;;;;;;5037690;28;20029;-77
2023/05/03 02:12:25;;;;;;;2.17;1.65;;;;;;;;;;5021163;28;20029;-76
2023/05/03 02:14:50;;;;;;;2.35;1.67;;;;;;;;;;5021088;28;20434;-76
2023/05/03 02:17:17;;;;;;;6.93;2.30;;;;;;;;;;5055132;28;20029;-76
2023/05/03 02:19:43;;;;;;;3.90;2.10;;;;;;;;;;5021747;28;20122;-75
2023/05/03 02:22:08;;;;;;;2.28;1.80;;;;;;;;;;5004902;28;20458;-76
2023/05/03 02:24:35;;;;;;;3.63;2.00;;;;;;;;;;5037352;28;20401;-77
2023/05/03 02:27:03;;;;;;;1.98;1.67;;;;;;;;;;5037916;28;20328;-78
2023/05/03 02:29:30;;;;;;;2.70;2.20;;;;;;;;;;5021776;28;20115;-78
2023/05/03 02:31:55;;;;;;;4.25;2.80;;;;;;;;;;5054979;28;20021;-78
2023/05/03 02:34:20;;;;;;;4.50;2.72;;;;;;;;;;5055134;28;20095;-78
2023/05/03 02:36:46;;;;;;;2.83;2.25;;;;;;;;;;5037431;28;20033;-78
2023/05/03 02:39:11;;;;;;;9.68;3.03;;;;;;;;;;5020773;28;20029;-78
2023/05/03 02:41:37;;;;;;;9.02;3.10;;;;;;;;;;5004612;28;20028;-78
2023/05/03 02:44:03;;;;;;;8.07;3.08;;;;;;;;;;5037158;28;20041;-78
2023/05/03 02:46:29;;;;;;;4.32;2.85;;;;;;;;;;5037189;28;20036;-78
2023/05/03 02:48:55;;;;;;;4.80;2.65;;;;;;;;;;5004832;28;20029;-77
2023/05/03 02:51:20;;;;;;;3.08;2.45;;;;;;;;;;5020463;28;20040;-78
2023/05/03 02:53:46;;;;;;;5.63;2.50;;;;;;;;;;5020658;28;20032;-77
2023/05/03 02:56:11;;;;;;;2.80;1.85;;;;;;;;;;5020528;28;20029;-77
2023/05/03 02:58:36;;;;;;;2.70;2.03;;;;;;;;;;5037134;28;20120;-78
2023/05/03 03:01:02;;;;;;;3.25;1.90;;;;;;;;;;5036162;28;20516;-77
2023/05/03 03:03:27;;;;;;;3.22;1.85;;;;;;;;;;5015041;28;20439;-76
2023/05/03 03:05:53;;;;;;;2.72;1.45;;;;;;;;;;5017247;28;20029;-77
2023/05/03 03:08:18;;;;;;;2.00;1.42;;;;;;;;;;5017056;28;20030;-77
2023/05/03 03:10:43;;;;;;;1.75;1.55;;;;;;;;;;4996725;28;20033;-77
2023/05/03 03:13:09;;;;;;;3.88;1.60;;;;;;;;;;5037731;28;20082;-77
2023/05/03 03:15:34;;;;;;;3.38;1.45;;;;;;;;;;5074022;28;20078;-77
2023/05/03 03:18:03;;;;;;;3.28;2.00;;;;;;;;;;5056564;28;20031;-77
2023/05/03 03:20:28;;;;;;;2.17;1.67;;;;;;;;;;5056688;28;20343;-77
2023/05/03 03:22:53;;;;;;;4.13;1.92;;;;;;;;;;5056572;28;20039;-78
2023/05/03 03:25:19;;;;;;;3.72;1.80;;;;;;;;;;5039866;28;20036;-78
2023/05/03 03:27:45;;;;;;;2.03;1.38;;;;;;;;;;5056540;28;20028;-77
2023/05/03 03:30:10;;;;;;;3.15;1.88;;;;;;;;;;5039199;28;20506;-76
2023/05/03 03:32:36;;;;;;;3.30;1.85;;;;;;;;;;5023013;28;20048;-77
2023/05/03 03:35:02;;;;;;;3.67;1.92;;;;;;;;;;5056193;28;20450;-76
2023/05/03 03:37:27;;;;;;;2.42;1.73;;;;;;;;;;5056415;28;20032;-78
2023/05/03 03:39:52;;;;;;;3.50;1.70;;;;;;;;;;5039510;28;20106;-77
2023/05/03 03:42:18;;;;;;;1.77;1.38;;;;;;;;;;5056285;28;20090;-78
2023/05/03 03:44:44;;;;;;;2.45;1.88;;;;;;;;;;5019765;28;20040;-78
2023/05/03 03:47:09;;;;;;;2.28;1.75;;;;;;;;;;5052843;28;20446;-77
2023/05/03 03:49:35;;;;;;;2.75;1.67;;;;;;;;;;5053744;28;20433;-77
2023/05/03 03:52:00;;;;;;;2.65;1.55;;;;;;;;;;5036115;28;20055;-78
2023/05/03 03:54:26;;;;;;;3.20;1.75;;;;;;;;;;5036040;28;20029;-78
2023/05/03 03:56:51;;;;;;;3.28;1.80;;;;;;;;;;5052521;28;20029;-76
2023/05/03 03:59:16;;;;;;;2.70;1.88;;;;;;;;;;5052285;28;20029;-77
2023/05/03 04:01:42;;;;;;;2.35;1.58;;;;;;;;;;5054278;28;20072;-77
2023/05/03 04:04:07;;;;;;;2.13;1.60;;;;;;;;;;5046922;28;20505;-77
2023/05/03 04:06:33;;;;;;;5.10;1.55;;;;;;;;;;5015420;28;20425;-77
2023/05/03 04:08:58;;;;;;;3.08;1.67;;;;;;;;;;5032478;28;20463;-77
2023/05/03 04:11:23;;;;;;;2.63;1.67;;;;;;;;;;5032531;28;20490;-78
2023/05/03 04:13:49;;;;;;;2.13;1.70;;;;;;;;;;4998523;28;20521;-77
2023/05/03 04:16:15;;;;;;;3.85;1.63;;;;;;;;;;5032294;28;20359;-77
2023/05/03 04:18:41;;;;;;;3.72;1.77;;;;;;;;;;5015968;28;20125;-77
2023/05/03 04:21:07;;;;;;;3.90;1.90;;;;;;;;;;5032291;28;20116;-77
2023/05/03 04:23:32;;;;;;;4.20;2.03;;;;;;;;;;5015997;28;20465;-77
2023/05/03 04:25:57;;;;;;;2.78;1.80;;;;;;;;;;4999171;28;20025;-77
2023/05/03 04:28:24;;;;;;;1.83;1.50;;;;;;;;;;5033002;28;20064;-77
2023/05/03 04:30:50;;;;;;;2.08;1.55;;;;;;;;;;5032033;28;20033;-77
2023/05/03 04:33:16;;;;;;;3.17;1.73;;;;;;;;;;5032325;28;20356;-76
2023/05/03 04:35:41;;;;;;;2.92;1.90;;;;;;;;;;5015933;28;20367;-76
2023/05/03 04:38:07;;;;;;;2.45;1.75;;;;;;;;;;5032176;28;20433;-77
2023/05/03 04:40:33;;;;;;;2.50;1.80;;;;;;;;;;5016574;28;20041;-76
2023/05/03 04:42:58;;;;;;;2.85;1.65;;;;;;;;;;5035313;28;20438;-78
2023/05/03 04:45:25;;;;;;;6.05;1.35;;;;;;;;;;5002064;28;20053;-76
2023/05/03 04:47:51;;;;;;;11.65;1.48;;;;;;;;;;5000528;28;20094;-75
2023/05/03 04:50:16;;;;;;;1.30;1.20;;;;;;;;;;5022084;28;20092;-75
2023/05/03 04:52:42;;;;;;;1.80;1.42;;;;;;;;;;5032311;28;20033;-75
2023/05/03 04:58:31;;;;;;;2.83;1.40;;;;;;;;;;5064834;28;20068;-76
2023/05/03 05:01:06;;;;;;;3.03;1.50;;;;;;;;;;5048230;28;20446;-75
2023/05/03 05:03:33;;;;;;;1.48;1.20;;;;;;;;;;5039747;28;20059;-75
2023/05/03 05:05:59;;;;;;;2.08;1.45;;;;;;;;;;5041834;28;20029;-76
2023/05/03 05:08:25;;;;;;;3.00;1.30;;;;;;;;;;5060326;28;20025;-77
2023/05/03 05:10:50;;;;;;;1.13;1.02;;;;;;;;;;5024776;28;20037;-75
2023/05/03 05:13:16;;;;;;;2.20;1.38;;;;;;;;;;5036192;28;20025;-75
2023/05/03 05:15:41;;;;;;;2.42;1.45;;;;;;;;;;5057469;28;20029;-75
2023/05/03 05:18:08;;;;;;;2.78;1.50;;;;;;;;;;5022635;28;20036;-76
2023/05/03 05:20:34;;;;;;;1.73;1.45;;;;;;;;;;5036812;28;20044;-76
2023/05/03 05:23:00;;;;;;;4.80;1.20;;;;;;;;;;5021936;28;20450;-76
2023/05/03 05:25:27;;;;;;;4.22;1.30;;;;;;;;;;5019987;28;20041;-74
2023/05/03 05:28:04;;;;;;;1.55;1.30;;;;;;;;;;5039091;28;20040;-76
2023/05/03 05:30:30;;;;;;;3.60;1.42;;;;;;;;;;5034357;28;20036;-75
2023/05/03 05:32:55;;;;;;;2.03;1.30;;;;;;;;;;5043914;28;20053;-76
2023/05/03 05:35:24;;;;;;;2.70;1.20;;;;;;;;;;5041312;28;20037;-74
2023/05/03 05:41:31;;;;;;;3.17;1.30;;;;;;;;;;5000337;28;20072;-76
2023/05/03 05:43:59;;;;;;;3.03;1.42;;;;;;;;;;5000700;28;21197;-76
2023/05/03 05:46:36;;;;;;;2.75;1.70;;;;;;;;;;5022900;28;20065;-76
2023/05/03 05:49:02;;;;;;;3.60;1.45;;;;;;;;;;5030186;28;20044;-75
2023/05/03 05:51:29;;;;;;;2.97;1.40;;;;;;;;;;5058243;28;20194;-75
2023/05/03 05:57:31;;;;;;;4.38;1.35;;;;;;;;;;5214957;22;20072;-76
2023/05/03 05:59:57;;;;;;;4.93;1.45;;;;;;;;;;5025946;28;20033;-75
2023/05/03 06:02:34;;;;;;;4.18;1.48;;;;;;;;;;5048135;28;20043;-76
2023/05/03 06:05:00;;;;;;;4.15;1.75;;;;;;;;;;5025822;28;20037;-75
2023/05/03 06:07:26;;;;;;;3.13;1.42;;;;;;;;;;5042746;28;20061;-76
2023/05/03 06:09:52;;;;;;;10.63;1.60;;;;;;;;;;5039884;28;20359;-76
2023/05/03 06:12:17;;;;;;;4.60;1.92;;;;;;;;;;5039535;28;20049;-76
2023/05/03 06:14:46;;;;;;;2.08;1.48;;;;;;;;;;5043354;28;20034;-76
2023/05/03 06:17:22;;;;;;;1.63;1.38;;;;;;;;;;5035895;28;20461;-75
2023/05/03 06:19:48;;;;;;;1.65;1.52;;;;;;;;;;5022608;28;20029;-76
2023/05/03 06:22:14;;;;;;;4.90;1.30;;;;;;;;;;5042650;28;20057;-75
2023/05/03 06:24:40;;;;;;;1.27;1.05;;;;;;;;;;5024169;28;20068;-77
2023/05/03 06:27:05;;;;;;;4.13;1.48;;;;;;;;;;5025900;28;20131;-77
2023/05/03 06:29:43;;;;;;;1.60;1.15;;;;;;;;;;5019169;28;20065;-75
2023/05/03 06:32:12;;;;;;;1.35;1.15;;;;;;;;;;5038059;28;20457;-73
2023/05/03 06:34:55;;;;;;;2.83;1.60;;;;;;;;;;5037157;28;20033;-75
2023/05/03 06:37:22;;;;;;;4.93;1.67;;;;;;;;;;5026862;28;20079;-76
2023/05/03 06:39:49;;;;;;;2.58;1.45;;;;;;;;;;5018174;28;20033;-76
2023/05/03 06:42:16;;;;;;;3.25;1.30;;;;;;;;;;5043612;28;20017;-78
2023/05/03 06:44:42;;;;;;;1.67;1.38;;;;;;;;;;5007865;28;20385;-76
2023/05/03 06:47:07;;;;;;;1.92;1.35;;;;;;;;;;4990656;28;20037;-74
2023/05/03 06:49:33;;;;;;;1.75;1.25;;;;;;;;;;5006449;28;20032;-74
2023/05/03 06:51:59;;;;;;;3.20;1.33;;;;;;;;;;5007720;28;20051;-74
2023/05/03 06:54:24;;;;;;;2.03;1.48;;;;;;;;;;5021330;28;20060;-77
2023/05/03 06:56:50;;;;;;;2.30;1.60;;;;;;;;;;5025922;28;20038;-78
2023/05/03 06:59:16;;;;;;;3.35;1.95;;;;;;;;;;5026291;28;20030;-77
2023/05/03 07:01:41;;;;;;;1.98;1.58;;;;;;;;;;5036289;28;20083;-78
2023/05/03 07:04:07;;;;;;;2.70;1.98;;;;;;;;;;5005033;28;20458;-77
2023/05/03 07:06:32;;;;;;;9.07;1.48;;;;;;;;;;5039063;28;20025;-77
2023/05/03 07:08:58;;;;;;;3.72;1.38;;;;;;;;;;5039880;28;20056;-77
2023/05/03 07:11:23;;;;;;;3.28;1.30;;;;;;;;;;5018307;28;20422;-77
2023/05/03 07:13:50;;;;;;;5.22;1.98;;;;;;;;;;5029804;28;20069;-77
2023/05/03 07:16:16;;;;;;;1.88;1.60;;;;;;;;;;5021718;28;20463;-80
2023/05/03 07:18:41;;;;;;;2.00;1.40;;;;;;;;;;5025760;28;20022;-79
2023/05/03 07:21:07;;;;;;;2.65;1.63;;;;;;;;;;5041152;28;20469;-79
2023/05/03 07:23:32;;;;;;;1.65;1.55;;;;;;;;;;5042817;28;20093;-79
2023/05/03 07:25:58;;;;;;;3.15;1.73;;;;;;;;;;5026339;28;20060;-78
2023/05/03 07:28:23;;;;;;;1.70;1.33;;;;;;;;;;5018909;28;20057;-78
2023/05/03 07:30:50;;;;;;;2.88;1.58;;;;;;;;;;5009510;28;20037;-78
2023/05/03 07:33:15;;;;;;;2.42;1.77;;;;;;;;;;5045184;28;20045;-76
2023/05/03 07:35:41;;;;;;;3.58;2.13;;;;;;;;;;5040445;28;20044;-80
2023/05/03 07:38:06;;;;;;;3.53;1.88;;;;;;;;;;5025323;28;20029;-77
2023/05/03 07:40:32;;;;;;;2.55;1.70;;;;;;;;;;5042149;28;20032;-79
2023/05/03 07:43:00;;;;;;;4.00;1.70;;;;;;;;;;5041510;28;20056;-79
2023/05/03 07:45:26;;;;;;;5.10;1.70;;;;;;;;;;5005184;28;20037;-78
2023/05/03 07:47:51;;;;;;;3.58;1.92;;;;;;;;;;5023124;28;20025;-78
2023/05/03 07:50:17;;;;;;;4.53;1.65;;;;;;;;;;5039414;28;20067;-78
2023/05/03 07:52:43;;;;;;;1.80;1.60;;;;;;;;;;5038769;28;20030;-78
2023/05/03 07:55:08;;;;;;;2.38;1.42;;;;;;;;;;5038970;28;20022;-79
2023/05/03 07:57:35;;;;;;;2.45;1.58;;;;;;;;;;5040046;28;20029;-82
2023/05/03 08:00:09;;;;;;;7.50;1.95;;;;;;;;;;5007655;28;20044;-80
2023/05/03 08:05:13;;;;;;;2.30;1.65;;;;;;;;;;5057012;22;20049;-78
2023/05/03 08:07:38;;;;;;;5.57;2.75;;;;;;;;;;5033809;28;20028;-78
2023/05/03 08:10:05;;;;;;;3.22;2.08;;;;;;;;;;5041913;28;20022;-78
2023/05/03 08:12:30;;;;;;;3.53;2.15;;;;;;;;;;5004760;28;20034;-78
2023/05/03 08:14:56;;;;;;;4.07;2.30;;;;;;;;;;5020232;28;20476;-77
2023/05/03 08:17:22;;;;;;;4.30;2.08;;;;;;;;;;5040074;28;20025;-79
2023/05/03 08:19:48;;;;;;;3.17;2.03;;;;;;;;;;5039881;28;20033;-77
2023/05/03 08:22:16;;;;;;;5.20;2.20;;;;;;;;;;5038701;28;20052;-78
2023/05/03 08:24:42;;;;;;;4.95;2.10;;;;;;;;;;5030087;28;20029;-78
2023/05/03 08:27:08;;;;;;;3.00;2.10;;;;;;;;;;5037594;28;20029;-77
2023/05/03 08:29:37;;;;;;;3.85;2.28;;;;;;;;;;5033337;28;20037;-77
2023/05/03 08:32:03;;;;;;;4.13;2.30;;;;;;;;;;5039534;28;20022;-77
2023/05/03 08:34:29;;;;;;;6.32;2.47;;;;;;;;;;5039417;28;20435;-78
2023/05/03 08:36:55;;;;;;;3.55;2.13;;;;;;;;;;5037402;28;20033;-76
2023/05/03 08:39:23;;;;;;;4.45;2.20;;;;;;;;;;5041729;28;20033;-78
2023/05/03 08:41:49;;;;;;;2.55;2.10;;;;;;;;;;5036127;28;20096;-77
2023/05/03 08:44:19;;;;;;;4.60;2.53;;;;;;;;;;5042377;28;20455;-78
2023/05/03 08:46:45;;;;;;;4.88;2.45;;;;;;;;;;5040806;28;20040;-77
2023/05/03 08:49:10;;;;;;;4.85;2.60;;;;;;;;;;5044558;28;20041;-78
2023/05/03 08:51:36;;;;;;;4.18;2.40;;;;;;;;;;5003325;28;20063;-80
2023/05/03 08:54:01;;;;;;;5.05;2.30;;;;;;;;;;5020238;28;20038;-76
2023/05/03 08:56:39;;;;;;;4.63;2.45;;;;;;;;;;5023305;28;20411;-78
2023/05/03 08:59:08;;;;;;;5.45;2.47;;;;;;;;;;5010566;28;20033;-77
2023/05/03 09:01:37;;;;;;;9.05;2.65;;;;;;;;;;5042990;28;20029;-78
2023/05/03 09:04:03;;;;;;;4.15;2.75;;;;;;;;;;5037621;28;20049;-78
2023/05/03 09:06:31;;;;;;;6.47;2.53;;;;;;;;;;5046488;28;20032;-79
2023/05/03 09:08:57;;;;;;;4.55;2.63;;;;;;;;;;5025311;28;20037;-79
2023/05/03 09:11:24;;;;;;;4.38;2.63;;;;;;;;;;5028293;28;20031;-79
2023/05/03 09:13:51;;;;;;;5.68;2.20;;;;;;;;;;5032892;28;20025;-78
2023/05/03 09:16:30;;;;;;;4.75;2.38;;;;;;;;;;5042342;28;20092;-78
2023/05/03 09:19:00;;;;;;;2.72;2.00;;;;;;;;;;5046036;28;20025;-76
2023/05/03 09:21:25;;;;;;;4.85;2.40;;;;;;;;;;5031751;28;20052;-78
2023/05/03 09:23:51;;;;;;;3.25;2.33;;;;;;;;;;5043119;28;20077;-77
2023/05/03 09:26:33;;;;;;;4.80;2.55;;;;;;;;;;5025464;28;20056;-77
2023/05/03 09:29:00;;;;;;;5.88;2.60;;;;;;;;;;5041926;28;20088;-77
2023/05/03 09:31:26;;;;;;;5.70;2.50;;;;;;;;;;5036471;28;20048;-78
2023/05/03 09:33:52;;;;;;;3.72;2.22;;;;;;;;;;5038360;28;20034;-78
2023/05/03 09:36:17;;;;;;;4.00;2.47;;;;;;;;;;5025359;28;20061;-77
2023/05/03 09:38:43;;;;;;;3.40;2.33;;;;;;;;;;5035963;28;20098;-76
2023/05/03 09:41:33;;;;;;;8.30;2.65;;;;;;;;;;5044992;28;20032;-80
2023/05/03 09:44:06;;;;;;;4.90;2.88;;;;;;;;;;5032345;28;20056;-80
2023/05/03 09:46:32;;;;;;;4.63;2.58;;;;;;;;;;5034557;28;20120;-80
2023/05/03 09:48:58;;;;;;;3.00;2.28;;;;;;;;;;5037305;28;20041;-77
2023/05/03 09:51:32;;;;;;;6.03;2.22;;;;;;;;;;5025021;28;20037;-83
2023/05/03 09:54:02;;;;;;;4.55;2.60;;;;;;;;;;5013497;28;20025;-81
2023/05/03 09:56:27;;;;;;;9.55;2.60;;;;;;;;;;5035785;28;20021;-77
2023/05/03 09:58:53;;;;;;;3.13;2.17;;;;;;;;;;5029619;28;20066;-79
2023/05/03 10:01:21;;;;;;;3.40;2.22;;;;;;;;;;5025810;28;20025;-78
2023/05/03 10:03:50;;;;;;;4.55;2.47;;;;;;;;;;5031471;28;20093;-78
2023/05/03 10:06:26;;;;;;;3.65;2.40;;;;;;;;;;5040315;28;20655;-77
2023/05/03 10:09:05;;;;;;;4.32;2.70;;;;;;;;;;5019594;28;20079;-78
2023/05/03 10:11:33;;;;;;;4.18;2.30;;;;;;;;;;5021797;28;20041;-78
2023/05/03 10:13:59;;;;;;;3.45;2.38;;;;;;;;;;5002680;28;20069;-79
2023/05/03 10:16:35;;;;;;;3.10;2.20;;;;;;;;;;5017256;28;20061;-77
2023/05/03 10:19:22;;;;;;;3.38;2.20;;;;;;;;;;4998387;28;20037;-78
2023/05/03 10:22:06;;;;;;;6.55;2.67;;;;;;;;;;4996655;28;20458;-78
2023/05/03 10:24:35;;;;;;;3.83;2.33;;;;;;;;;;5005929;28;20048;-79
2023/05/03 10:27:00;;;;;;;5.15;2.45;;;;;;;;;;5017955;28;20036;-78
2023/05/03 10:29:33;;;;;;;4.15;2.28;;;;;;;;;;5024924;28;20120;-79
2023/05/03 10:31:59;;;;;;;4.03;2.83;;;;;;;;;;5036507;28;20031;-79
2023/05/03 10:34:29;;;;;;;3.72;2.47;;;;;;;;;;5022925;28;20089;-78
2023/05/03 10:36:55;;;;;;;3.40;2.40;;;;;;;;;;5009547;28;20033;-78
2023/05/03 10:39:25;;;;;;;2.88;2.33;;;;;;;;;;5020837;28;20064;-80
2023/05/03 10:42:06;;;;;;;5.78;2.85;;;;;;;;;;5011882;28;20235;-76
2023/05/03 10:44:39;;;;;;;4.53;2.30;;;;;;;;;;5041685;28;20030;-79
2023/05/03 10:47:25;;;;;;;3.35;2.28;;;;;;;;;;5025262;28;20037;-78
2023/05/03 10:50:14;;;;;;;7.53;3.03;;;;;;;;;;5015462;28;20132;-78
2023/05/03 10:52:42;;;;;;;2.83;2.05;;;;;;;;;;5010154;28;20490;-77
2023/05/03 10:55:11;;;;;;;6.03;2.60;;;;;;;;;;5028498;28;20033;-78
2023/05/03 10:57:38;;;;;;;4.17;2.30;;;;;;;;;;5032304;28;20057;-79
2023/05/03 11:00:07;;;;;;;3.15;2.22;;;;;;;;;;5022519;28;20032;-77
2023/05/03 11:02:36;;;;;;;4.55;2.92;;;;;;;;;;5016290;28;20062;-76
2023/05/03 11:05:03;;;;;;;3.60;2.55;;;;;;;;;;5006589;28;20038;-77
2023/05/03 11:07:32;;;;;;;4.88;2.83;;;;;;;;;;4979847;28;20040;-78
2023/05/03 11:09:57;;;;;;;3.25;2.38;;;;;;;;;;5034233;28;20034;-78
2023/05/03 11:12:23;;;;;;;7.10;3.17;;;;;;;;;;5019753;28;20080;-78
2023/05/03 11:14:51;;;;;;;4.05;2.65;;;;;;;;;;5000271;28;20018;-78
2023/05/03 11:17:17;;;;;;;7.63;3.42;;;;;;;;;;5023432;28;20061;-79
2023/05/03 11:19:42;;;;;;;5.00;2.92;;;;;;;;;;5017939;28;20360;-79
2023/05/03 11:22:08;;;;;;;5.30;2.60;;;;;;;;;;5025320;28;20363;-79
2023/05/03 11:24:34;;;;;;;3.97;2.80;;;;;;;;;;5035469;28;20080;-79
2023/05/03 11:27:04;;;;;;;4.57;2.40;;;;;;;;;;5038782;28;20036;-78
2023/05/03 11:29:31;;;;;;;7.45;3.05;;;;;;;;;;5032025;28;20022;-78
2023/05/03 11:31:56;;;;;;;4.43;2.63;;;;;;;;;;4985041;28;20038;-79
2023/05/03 11:34:22;;;;;;;5.32;2.83;;;;;;;;;;5000761;28;20053;-79
2023/05/03 11:36:48;;;;;;;4.53;2.70;;;;;;;;;;4997665;28;20111;-78
2023/05/03 11:39:14;;;;;;;6.90;2.85;;;;;;;;;;5015032;28;20022;-79
2023/05/03 11:41:41;;;;;;;3.10;2.65;;;;;;;;;;5012272;28;20034;-78
2023/05/03 11:44:06;;;;;;;5.47;2.20;;;;;;;;;;5001349;28;20030;-79
2023/05/03 11:46:33;;;;;;;6.57;2.78;;;;;;;;;;4991894;28;20055;-79
2023/05/03 11:49:00;;;;;;;4.93;2.38;;;;;;;;;;5000001;28;20522;-79
2023/05/03 11:51:26;;;;;;;4.20;2.47;;;;;;;;;;4992666;28;20030;-78
2023/05/03 11:53:51;;;;;;;5.47;2.75;;;;;;;;;;4984089;28;20029;-79
2023/05/03 11:56:19;;;;;;;7.38;2.40;;;;;;;;;;4997979;28;20032;-79
2023/05/03 11:58:59;;;;;;;7.45;2.70;;;;;;;;;;4993449;28;20025;-80
2023/05/03 12:01:26;;;;;;;8.02;2.67;;;;;;;;;;5015667;28;20387;-79
2023/05/03 12:03:53;;;;;;;4.28;2.83;;;;;;;;;;4984005;28;20113;-79
2023/05/03 12:06:18;;;;;;;8.05;3.13;;;;;;;;;;4999354;28;20030;-79
2023/05/03 12:08:44;;;;;;;6.07;3.40;;;;;;;;;;4979549;28;20033;-77
2023/05/03 12:11:10;;;;;;;6.72;3.25;;;;;;;;;;5002138;28;20036;-77
2023/05/03 12:13:36;;;;;;;6.97;3.35;;;;;;;;;;4996748;28;20022;-78
2023/05/03 12:16:06;;;;;;;6.88;3.47;;;;;;;;;;4986913;28;20053;-79
2023/05/03 12:18:55;;;;;;;4.33;2.97;;;;;;;;;;4996874;28;20038;-77
2023/05/03 12:21:23;;;;;;;4.50;2.72;;;;;;;;;;5026707;28;20033;-78
2023/05/03 12:23:49;;;;;;;4.40;2.40;;;;;;;;;;4980646;28;20120;-78
2023/05/03 12:26:15;;;;;;;5.22;2.78;;;;;;;;;;4999856;28;20426;-79
2023/05/03 12:28:41;;;;;;;4.40;2.67;;;;;;;;;;4979289;28;20030;-79
2023/05/03 12:31:06;;;;;;;6.93;3.00;;;;;;;;;;5017927;28;20100;-79
2023/05/03 12:33:32;;;;;;;4.43;2.78;;;;;;;;;;4977661;28;20080;-77
2023/05/03 12:35:58;;;;;;;5.82;2.92;;;;;;;;;;5019348;28;20041;-80
2023/05/03 12:38:23;;;;;;;4.45;2.92;;;;;;;;;;5003596;28;20037;-80
2023/05/03 12:40:49;;;;;;;4.22;2.78;;;;;;;;;;4999575;28;20021;-77
2023/05/03 12:43:15;;;;;;;5.25;3.28;;;;;;;;;;5019211;28;20558;-77
2023/05/03 12:45:40;;;;;;;6.35;2.90;;;;;;;;;;5013632;28;20030;-78
2023/05/03 12:48:06;;;;;;;5.57;2.70;;;;;;;;;;5020464;28;20379;-78
2023/05/03 12:50:32;;;;;;;3.85;2.65;;;;;;;;;;4997144;28;20037;-78
2023/05/03 12:52:57;;;;;;;4.85;2.65;;;;;;;;;;5006224;28;20092;-78
2023/05/03 12:55:22;;;;;;;5.15;2.50;;;;;;;;;;5022756;28;20037;-78
2023/05/03 12:57:48;;;;;;;3.95;2.63;;;;;;;;;;5021925;28;20030;-77
2023/05/03 13:00:16;;;;;;;3.08;2.47;;;;;;;;;;4998476;28;20141;-79
2023/05/03 13:02:41;;;;;;;5.10;2.40;;;;;;;;;;4978401;28;20030;-79
2023/05/03 13:05:08;;;;;;;3.60;2.20;;;;;;;;;;4999627;28;20152;-78
2023/05/03 13:07:33;;;;;;;3.85;2.53;;;;;;;;;;5009214;28;20119;-79
2023/05/03 13:09:59;;;;;;;4.50;2.58;;;;;;;;;;5015710;28;20073;-79
2023/05/03 13:12:25;;;;;;;3.13;2.63;;;;;;;;;;4983361;28;20070;-79
2023/05/03 13:14:51;;;;;;;4.75;2.45;;;;;;;;;;4979364;28;20041;-79
2023/05/03 13:17:19;;;;;;;4.65;2.50;;;;;;;;;;5015967;28;20034;-78
2023/05/03 13:19:46;;;;;;;7.75;2.30;;;;;;;;;;5010649;28;20026;-79
2023/05/03 13:22:11;;;;;;;5.30;2.60;;;;;;;;;;5016588;28;20026;-79
2023/05/03 13:24:37;;;;;;;5.72;2.30;;;;;;;;;;5036202;28;20052;-78
2023/05/03 13:27:03;;;;;;;3.78;2.08;;;;;;;;;;5016261;28;20029;-79
2023/05/03 13:29:29;;;;;;;5.50;2.78;;;;;;;;;;4995696;28;20052;-79
2023/05/03 13:31:54;;;;;;;3.53;2.42;;;;;;;;;;5002646;28;20065;-80
2023/05/03 13:34:20;;;;;;;3.05;2.50;;;;;;;;;;5035501;28;20037;-79
2023/05/03 13:36:46;;;;;;;4.03;2.70;;;;;;;;;;5013753;28;20037;-80
2023/05/03 13:39:11;;;;;;;4.55;2.60;;;;;;;;;;5002743;28;20040;-79
2023/05/03 13:41:40;;;;;;;3.80;2.65;;;;;;;;;;5012249;28;20033;-80
2023/05/03 13:44:07;;;;;;;4.00;2.60;;;;;;;;;;5002916;28;20021;-80
2023/05/03 13:46:35;;;;;;;4.35;3.00;;;;;;;;;;4995161;28;20064;-80
2023/05/03 13:49:01;;;;;;;4.80;2.70;;;;;;;;;;5035109;28;20418;-78
2023/05/03 13:51:27;;;;;;;4.57;2.83;;;;;;;;;;5010590;28;20065;-78
2023/05/03 13:53:52;;;;;;;5.10;2.90;;;;;;;;;;5034762;28;20344;-79
2023/05/03 13:56:18;;;;;;;4.22;2.85;;;;;;;;;;5018350;28;20029;-78
2023/05/03 13:58:43;;;;;;;4.10;2.92;;;;;;;;;;5012966;28;20056;-79
2023/05/03 14:01:09;;;;;;;5.30;2.97;;;;;;;;;;5034769;28;20036;-78
2023/05/03 14:03:35;;;;;;;4.72;3.22;;;;;;;;;;5035880;28;20049;-80
2023/05/03 14:06:01;;;;;;;3.38;2.55;;;;;;;;;;5031325;28;20478;-80
2023/05/03 14:08:27;;;;;;;10.63;2.53;;;;;;;;;;5026346;28;20037;-79
2023/05/03 14:10:53;;;;;;;3.95;2.35;;;;;;;;;;5035917;28;20518;-79
2023/05/03 14:13:18;;;;;;;3.00;2.40;;;;;;;;;;5035780;28;20508;-80
2023/05/03 14:15:44;;;;;;;3.72;2.60;;;;;;;;;;5012617;28;20139;-78
2023/05/03 14:18:10;;;;;;;3.40;2.17;;;;;;;;;;5024609;28;20025;-80
2023/05/03 14:20:35;;;;;;;4.07;2.33;;;;;;;;;;5007983;28;20374;-80
2023/05/03 14:23:02;;;;;;;4.50;2.60;;;;;;;;;;5012312;28;20033;-79
2023/05/03 14:25:27;;;;;;;3.63;2.53;;;;;;;;;;5000255;28;20025;-79
2023/05/03 14:27:53;;;;;;;7.65;2.92;;;;;;;;;;5032924;28;20366;-79
2023/05/03 14:30:18;;;;;;;5.80;2.95;;;;;;;;;;5016106;28;20067;-79
2023/05/03 14:32:44;;;;;;;6.13;3.22;;;;;;;;;;5010613;28;20029;-79
2023/05/03 14:35:09;;;;;;;3.97;2.50;;;;;;;;;;5016012;28;20037;-80
2023/05/03 14:37:35;;;;;;;5.75;2.67;;;;;;;;;;5025357;28;20029;-79
2023/05/03 14:40:02;;;;;;;4.80;2.92;;;;;;;;;;5016265;28;20071;-79
2023/05/03 14:42:30;;;;;;;4.85;2.83;;;;;;;;;;5026092;28;20091;-79
2023/05/03 14:44:56;;;;;;;3.65;2.60;;;;;;;;;;5017622;28;20025;-80
2023/05/03 14:47:22;;;;;;;5.03;2.58;;;;;;;;;;5034114;28;20446;-77
2023/05/03 14:49:47;;;;;;;4.25;2.40;;;;;;;;;;5035198;28;20026;-81
2023/05/03 14:52:12;;;;;;;4.53;2.70;;;;;;;;;;5015715;28;20033;-79
2023/05/03 14:54:38;;;;;;;4.05;2.63;;;;;;;;;;5035109;28;20030;-79
2023/05/03 14:57:03;;;;;;;2.85;2.42;;;;;;;;;;5030273;28;20025;-81